createdAt,value
2022-08-12T00:00:00.280Z,21.04
2022-08-12T00:02:45.902Z,21.13
2022-08-12T00:05:32.579Z,21.10
2022-08-12T00:08:28.563Z,21.17
2022-08-12T00:11:16.971Z,21.03
2022-08-12T00:14:02.517Z,21.05
2022-08-12T00:16:49.787Z,20.99
2022-08-12T00:19:35.159Z,20.97
2022-08-12T00:22:20.963Z,20.97
2022-08-12T00:25:06.576Z,20.92
2022-08-12T00:27:52.207Z,20.96
2022-08-12T00:30:37.860Z,20.93
2022-08-12T00:33:26.940Z,20.95
2022-08-12T00:36:35.258Z,20.95
2022-08-12T00:39:23.124Z,20.95
2022-08-12T00:42:10.421Z,20.95
2022-08-12T00:44:39.305Z,20.95
2022-08-12T00:47:07.656Z,20.97
2022-08-12T00:49:55.799Z,20.82
2022-08-12T00:52:24.414Z,20.83
2022-08-12T00:54:54.969Z,20.78
2022-08-12T00:57:24.574Z,20.79
2022-08-12T00:59:56.468Z,20.76
2022-08-12T01:02:26.617Z,20.78
2022-08-12T01:05:14.884Z,20.80
2022-08-12T01:08:01.346Z,20.72
2022-08-12T01:10:49.190Z,20.72
2022-08-12T01:13:20.253Z,20.73
2022-08-12T01:15:50.599Z,20.78
2022-08-12T01:18:20.181Z,20.73
2022-08-12T01:21:01.213Z,20.76
2022-08-12T01:23:52.218Z,20.68
2022-08-12T01:26:24.457Z,20.71
2022-08-12T01:28:57.032Z,20.69
2022-08-12T01:31:29.336Z,20.75
2022-08-12T01:34:04.207Z,20.81
2022-08-12T01:36:37.998Z,20.76
2022-08-12T01:39:06.420Z,20.78
2022-08-12T01:41:40.033Z,20.77
2022-08-12T01:44:10.264Z,20.79
2022-08-12T01:46:51.779Z,20.79
2022-08-12T01:49:42.448Z,20.73
2022-08-12T01:52:22.750Z,20.66
2022-08-12T01:54:52.901Z,20.41
2022-08-12T01:57:57.851Z,20.07
2022-08-12T02:00:20.392Z,19.86
2022-08-12T02:03:17.962Z,19.93
2022-08-12T02:06:13.199Z,19.89
2022-08-12T02:09:09.619Z,19.93
2022-08-12T02:11:50.512Z,19.97
2022-08-12T02:14:38.195Z,19.96
2022-08-12T02:17:55.543Z,19.97
2022-08-12T02:20:21.841Z,20.09
2022-08-12T02:22:52.186Z,20.16
2022-08-12T02:25:25.784Z,20.25
2022-08-12T02:27:55.443Z,20.31
2022-08-12T02:30:42.048Z,20.25
2022-08-12T02:33:11.760Z,20.35
2022-08-12T02:35:42.472Z,20.33
2022-08-12T02:38:12.719Z,20.36
2022-08-12T02:40:43.125Z,20.38
2022-08-12T02:43:22.918Z,20.44
2022-08-12T02:45:56.768Z,20.47
2022-08-12T02:48:28.256Z,20.50
2022-08-12T02:50:58.896Z,20.54
2022-08-12T02:53:28.381Z,20.59
2022-08-12T02:55:57.533Z,20.53
2022-08-12T02:58:33.311Z,20.61
2022-08-12T03:01:06.066Z,20.55
2022-08-12T03:03:35.883Z,20.51
2022-08-12T03:06:06.735Z,20.40
2022-08-12T03:08:41.149Z,20.31
2022-08-12T03:11:18.706Z,20.36
2022-08-12T03:13:52.262Z,20.25
2022-08-12T03:16:22.315Z,20.17
2022-08-12T03:18:51.594Z,20.12
2022-08-12T03:21:53.021Z,19.92
2022-08-12T03:24:14.523Z,19.76
2022-08-12T03:26:45.855Z,19.66
2022-08-12T03:29:14.537Z,19.65
2022-08-12T03:31:44.837Z,19.70
2022-08-12T03:34:13.358Z,19.70
2022-08-12T03:36:43.676Z,19.62
2022-08-12T03:39:36.028Z,19.61
2022-08-12T03:42:22.115Z,19.43
2022-08-12T03:45:15.073Z,19.39
2022-08-12T03:48:08.872Z,19.37
2022-08-12T03:50:56.536Z,19.35
2022-08-12T03:53:45.395Z,19.35
2022-08-12T03:56:31.737Z,19.43
2022-08-12T03:59:18.483Z,19.47
2022-08-12T04:01:52.623Z,19.51
2022-08-12T04:04:23.831Z,19.43
2022-08-12T04:06:52.379Z,19.44
2022-08-12T04:09:22.149Z,19.37
2022-08-12T04:12:09.028Z,19.39
2022-08-12T04:14:37.759Z,19.32
2022-08-12T04:17:06.374Z,19.34
2022-08-12T04:19:36.056Z,19.18
2022-08-12T04:22:04.187Z,19.30
2022-08-12T04:24:35.265Z,19.28
2022-08-12T04:27:05.531Z,19.20
2022-08-12T04:30:31.319Z,18.96
2022-08-12T04:32:24.036Z,18.97
2022-08-12T04:34:54.242Z,18.89
2022-08-12T04:37:23.309Z,18.81
2022-08-12T04:39:54.274Z,18.79
2022-08-12T04:42:23.923Z,18.71
2022-08-12T04:44:52.063Z,18.78
2022-08-12T04:47:21.919Z,18.77
2022-08-12T04:49:49.908Z,18.77
2022-08-12T04:52:19.644Z,18.77
2022-08-12T04:54:49.110Z,18.78
2022-08-12T04:57:17.180Z,18.91
2022-08-12T04:59:48.157Z,18.86
2022-08-12T05:02:21.018Z,18.78
2022-08-12T05:04:52.216Z,18.84
2022-08-12T05:07:24.354Z,18.91
2022-08-12T05:09:59.314Z,18.90
2022-08-12T05:12:36.756Z,18.89
2022-08-12T05:15:27.533Z,19.00
2022-08-12T05:18:00.107Z,19.05
2022-08-12T05:20:30.863Z,19.11
2022-08-12T05:23:13.347Z,19.10
2022-08-12T05:25:43.393Z,19.15
2022-08-12T05:28:13.092Z,19.07
2022-08-12T05:30:42.653Z,19.11
2022-08-12T05:33:11.990Z,19.07
2022-08-12T05:35:42.997Z,19.19
2022-08-12T05:38:31.701Z,19.25
2022-08-12T05:41:00.422Z,19.19
2022-08-12T05:43:28.949Z,19.23
2022-08-12T05:45:57.421Z,19.31
2022-08-12T05:48:25.635Z,19.36
2022-08-12T05:50:53.773Z,19.38
2022-08-12T05:53:23.917Z,19.57
2022-08-12T05:55:54.887Z,19.63
2022-08-12T05:58:22.856Z,19.68
2022-08-12T06:00:50.871Z,19.70
2022-08-12T06:03:19.621Z,19.73
2022-08-12T06:05:55.107Z,19.72
2022-08-12T06:08:26.312Z,19.71
2022-08-12T06:10:57.180Z,19.71
2022-08-12T06:13:25.620Z,19.63
2022-08-12T06:16:15.557Z,19.72
2022-08-12T06:18:44.037Z,19.78
2022-08-12T06:21:14.353Z,19.92
2022-08-12T06:23:45.396Z,19.99
2022-08-12T06:26:16.645Z,20.06
2022-08-12T06:28:45.107Z,20.12
2022-08-12T06:31:26.082Z,20.14
2022-08-12T06:35:22.640Z,20.34
2022-08-12T06:36:43.515Z,20.52
2022-08-12T06:39:15.107Z,20.54
2022-08-12T06:42:31.934Z,20.68
2022-08-12T06:45:01.745Z,20.83
2022-08-12T06:47:29.735Z,20.72
2022-08-12T06:49:57.971Z,20.93
2022-08-12T06:52:26.244Z,20.94
2022-08-12T06:54:55.808Z,20.97
2022-08-12T06:58:08.206Z,21.03
2022-08-12T07:00:17.321Z,21.06
2022-08-12T07:02:46.738Z,21.15
2022-08-12T07:05:14.762Z,21.33
2022-08-12T07:07:46.455Z,21.37
2022-08-12T07:10:15.879Z,21.35
2022-08-12T07:12:45.262Z,21.51
2022-08-12T07:15:13.381Z,21.60
2022-08-12T07:17:41.983Z,21.61
2022-08-12T07:20:29.622Z,21.70
2022-08-12T07:23:00.981Z,21.70
2022-08-12T07:25:41.044Z,21.73
2022-08-12T07:28:16.287Z,21.86
2022-08-12T07:30:48.526Z,22.07
2022-08-12T07:33:17.906Z,22.11
2022-08-12T07:35:48.016Z,22.15
2022-08-12T07:38:29.214Z,22.26
2022-08-12T07:41:03.386Z,22.42
2022-08-12T07:43:32.625Z,22.46
2022-08-12T07:46:02.584Z,22.57
2022-08-12T07:48:37.719Z,22.64
2022-08-12T07:51:05.931Z,22.85
2022-08-12T07:53:35.063Z,22.98
2022-08-12T07:56:19.959Z,23.20
2022-08-12T07:58:47.936Z,23.39
2022-08-12T08:01:19.725Z,23.56
2022-08-12T08:04:08.283Z,23.60
2022-08-12T08:06:36.862Z,23.71
2022-08-12T08:09:06.493Z,23.77
2022-08-12T08:11:53.447Z,23.76
2022-08-12T08:14:22.900Z,23.65
2022-08-12T08:16:50.941Z,23.72
2022-08-12T08:19:23.951Z,23.43
2022-08-12T08:21:53.515Z,23.44
2022-08-12T08:24:21.608Z,23.54
2022-08-12T08:26:53.096Z,23.61
2022-08-12T08:29:22.763Z,23.84
2022-08-12T08:31:54.062Z,23.75
2022-08-12T08:34:49.167Z,23.79
2022-08-12T08:37:17.132Z,23.97
2022-08-12T08:39:45.458Z,24.11
2022-08-12T08:42:32.545Z,24.39
2022-08-12T08:45:00.662Z,24.49
2022-08-12T08:47:29.861Z,24.74
2022-08-12T08:50:01.253Z,24.77
2022-08-12T08:52:40.267Z,24.84
2022-08-12T08:55:10.699Z,24.54
2022-08-12T08:57:43.696Z,24.69
2022-08-12T09:00:15.523Z,24.73
2022-08-12T09:02:49.489Z,24.73
2022-08-12T09:05:27.171Z,24.84
2022-08-12T09:08:09.013Z,24.87
2022-08-12T09:14:10.654Z,24.86
2022-08-12T09:16:23.249Z,24.96
2022-08-12T09:18:52.643Z,25.07
2022-08-12T09:21:22.995Z,25.24
2022-08-12T09:24:00.750Z,25.30
2022-08-12T09:26:38.345Z,25.37
2022-08-12T09:29:16.245Z,25.27
2022-08-12T09:32:03.729Z,25.34
2022-08-12T09:34:36.305Z,25.48
2022-08-12T09:37:19.389Z,25.57
2022-08-12T09:40:01.603Z,25.51
2022-08-12T09:43:15.223Z,25.45
2022-08-12T09:46:20.063Z,25.49
2022-08-12T09:48:39.987Z,25.59
2022-08-12T09:51:22.208Z,25.37
2022-08-12T09:54:08.814Z,25.44
2022-08-12T09:56:57.946Z,25.63
2022-08-12T10:00:15.704Z,25.96
2022-08-12T10:02:42.650Z,26.04
2022-08-12T10:05:13.006Z,26.22
2022-08-12T10:07:41.767Z,26.25
2022-08-12T10:10:22.406Z,26.21
2022-08-12T10:13:14.230Z,26.40
2022-08-12T10:16:02.206Z,26.11
2022-08-12T10:18:51.650Z,26.14
2022-08-12T10:21:23.133Z,26.04
2022-08-12T10:23:55.077Z,25.90
2022-08-12T10:26:42.446Z,26.01
2022-08-12T10:30:37.842Z,26.23
2022-08-12T10:32:44.243Z,26.30
2022-08-12T10:35:11.068Z,26.35
2022-08-12T10:38:37.757Z,26.50
2022-08-12T10:40:32.076Z,26.48
2022-08-12T10:43:18.019Z,26.48
2022-08-12T10:45:49.771Z,26.27
2022-08-12T10:48:33.271Z,26.34
2022-08-12T10:52:04.159Z,26.44
2022-08-12T10:54:00.286Z,26.24
2022-08-12T10:56:34.521Z,26.09
2022-08-12T10:59:05.492Z,26.01
2022-08-12T11:04:19.351Z,25.70
2022-08-12T11:04:39.352Z,25.55
2022-08-12T11:08:33.639Z,25.47
2022-08-12T11:10:02.709Z,25.56
2022-08-12T11:12:54.524Z,25.32
2022-08-12T11:15:24.403Z,25.43
2022-08-12T11:18:18.280Z,25.68
2022-08-12T11:20:49.070Z,25.86
2022-08-12T11:23:25.827Z,26.05
2022-08-12T11:26:07.759Z,26.25
2022-08-12T11:28:38.249Z,26.06
2022-08-12T11:31:12.117Z,26.14
2022-08-12T11:34:04.767Z,25.98
2022-08-12T11:36:31.683Z,25.07
2022-08-12T11:39:04.148Z,25.03
2022-08-12T11:41:34.603Z,24.83
2022-08-12T11:44:24.094Z,24.91
2022-08-12T11:46:53.171Z,25.16
2022-08-12T11:49:32.316Z,25.15
2022-08-12T11:52:02.376Z,25.37
2022-08-12T11:54:33.511Z,25.42
2022-08-12T11:57:03.002Z,25.69
2022-08-12T12:02:38.203Z,25.59
2022-08-12T12:05:07.279Z,25.90
2022-08-12T12:08:38.165Z,25.50
2022-08-12T12:10:29.284Z,25.07
2022-08-12T12:12:57.398Z,25.03
2022-08-12T12:15:40.653Z,24.96
2022-08-12T12:18:22.341Z,24.91
2022-08-12T12:21:00.559Z,25.10
2022-08-12T12:23:30.936Z,25.03
2022-08-12T12:26:08.038Z,25.17
2022-08-12T12:28:41.498Z,25.62
2022-08-12T12:32:10.174Z,25.84
2022-08-12T12:34:12.278Z,25.69
2022-08-12T12:36:58.688Z,25.82
2022-08-12T12:39:29.204Z,26.31
2022-08-12T12:42:41.720Z,26.57
2022-08-12T12:45:19.085Z,26.94
2022-08-12T12:47:59.296Z,26.95
2022-08-12T12:50:34.817Z,27.08
2022-08-12T12:53:03.203Z,27.34
2022-08-12T12:55:32.714Z,28.07
2022-08-12T12:58:11.240Z,28.44
2022-08-12T13:00:50.082Z,29.28
2022-08-12T13:03:22.006Z,29.85
2022-08-12T13:05:53.958Z,30.82
2022-08-12T13:08:28.304Z,31.36
2022-08-12T13:11:06.064Z,31.87
2022-08-12T13:14:10.048Z,32.19
2022-08-12T13:16:29.313Z,31.67
2022-08-12T13:18:58.412Z,31.39
2022-08-12T13:21:33.158Z,31.13
2022-08-12T13:24:09.801Z,31.35
2022-08-12T13:26:40.627Z,31.32
2022-08-12T13:29:11.600Z,31.88
2022-08-12T13:32:18.761Z,31.73
2022-08-12T13:34:35.290Z,31.97
2022-08-12T13:37:09.920Z,32.28
2022-08-12T13:39:38.430Z,32.32
2022-08-12T13:42:14.322Z,32.41
2022-08-12T13:44:46.196Z,32.03
2022-08-12T13:47:19.695Z,31.86
2022-08-12T13:49:54.467Z,32.05
2022-08-12T13:52:23.871Z,31.62
2022-08-12T13:54:56.365Z,31.82
2022-08-12T13:57:26.442Z,31.54
2022-08-12T14:00:00.744Z,31.80
2022-08-12T14:02:29.799Z,32.04
2022-08-12T14:04:57.818Z,31.91
2022-08-12T14:07:27.605Z,32.17
2022-08-12T14:10:16.182Z,32.28
2022-08-12T14:12:53.947Z,31.93
2022-08-12T14:15:37.017Z,31.75
2022-08-12T14:18:14.203Z,31.60
2022-08-12T14:20:47.528Z,31.61
2022-08-12T14:24:05.624Z,31.52
2022-08-12T14:26:07.363Z,31.66
2022-08-12T14:28:45.222Z,31.74
2022-08-12T14:31:32.013Z,31.36
2022-08-12T14:34:04.881Z,31.86
2022-08-12T14:36:34.147Z,32.17
2022-08-12T14:39:06.522Z,32.06
2022-08-12T14:41:36.682Z,31.60
2022-08-12T14:44:59.619Z,31.37
2022-08-12T14:47:07.758Z,31.52
2022-08-12T14:50:34.165Z,31.55
2022-08-12T14:53:11.331Z,31.24
2022-08-12T14:58:03.678Z,30.00
2022-08-12T15:01:05.076Z,29.77
2022-08-12T15:03:52.597Z,29.91
2022-08-12T15:06:43.555Z,30.06
2022-08-12T15:09:12.286Z,29.92
2022-08-12T15:11:48.741Z,29.45
2022-08-12T15:14:27.565Z,29.80
2022-08-12T15:17:00.186Z,29.82
2022-08-12T15:20:28.028Z,30.47
2022-08-12T15:22:38.383Z,31.09
2022-08-12T15:25:08.041Z,31.56
2022-08-12T15:28:04.631Z,32.03
2022-08-12T15:30:32.589Z,32.20
2022-08-12T15:33:12.228Z,32.24
2022-08-12T15:35:52.995Z,32.11
2022-08-12T15:38:24.751Z,31.81
2022-08-12T15:40:55.260Z,31.21
2022-08-12T15:43:35.618Z,30.92
2022-08-12T15:46:15.209Z,30.45
2022-08-12T15:48:47.629Z,30.15
2022-08-12T15:51:57.224Z,29.91
2022-08-12T15:54:30.916Z,30.00
2022-08-12T15:57:08.394Z,29.57
2022-08-12T16:00:03.911Z,28.96
2022-08-12T16:02:29.368Z,28.98
2022-08-12T16:04:58.668Z,28.93
2022-08-12T16:07:31.217Z,28.83
2022-08-12T16:10:08.676Z,28.72
2022-08-12T16:12:43.589Z,28.33
2022-08-12T16:15:26.220Z,28.17
2022-08-12T16:18:17.952Z,27.81
2022-08-12T16:20:46.500Z,27.89
2022-08-12T16:23:36.319Z,27.73
2022-08-12T16:26:15.073Z,27.61
2022-08-12T16:28:48.517Z,27.55
2022-08-12T16:31:22.997Z,27.11
2022-08-12T16:33:59.636Z,27.22
2022-08-12T16:36:29.893Z,27.15
2022-08-12T16:39:01.602Z,27.03
2022-08-12T16:41:37.915Z,26.86
2022-08-12T16:44:08.324Z,26.64
2022-08-12T16:46:36.584Z,26.50
2022-08-12T16:49:09.164Z,26.51
2022-08-12T16:51:46.673Z,26.40
2022-08-12T16:54:18.526Z,26.28
2022-08-12T16:56:55.641Z,26.18
2022-08-12T16:59:52.840Z,26.21
2022-08-12T17:02:31.567Z,26.09
2022-08-12T17:05:04.658Z,25.93
2022-08-12T17:07:38.164Z,25.79
2022-08-12T17:10:18.526Z,25.70
2022-08-12T17:13:09.857Z,25.62
2022-08-12T17:15:56.887Z,25.57
2022-08-12T17:18:43.820Z,25.41
2022-08-12T17:21:20.020Z,25.28
2022-08-12T17:23:53.757Z,25.25
2022-08-12T17:26:30.922Z,25.16
2022-08-12T17:29:00.263Z,25.09
2022-08-12T17:32:00.612Z,24.90
2022-08-12T17:34:38.598Z,24.61
2022-08-12T17:37:06.451Z,24.65
2022-08-12T17:40:12.698Z,24.59
2022-08-12T17:42:32.455Z,24.51
2022-08-12T17:45:18.179Z,24.46
2022-08-12T17:48:01.235Z,24.45
2022-08-12T17:50:32.302Z,24.12
2022-08-12T17:53:03.093Z,24.24
2022-08-12T17:55:43.783Z,24.24
2022-08-12T17:58:18.495Z,23.97
2022-08-12T18:00:51.728Z,23.77
2022-08-12T18:04:04.632Z,23.54
2022-08-12T18:06:14.658Z,23.42
2022-08-12T18:08:53.673Z,23.48
2022-08-12T18:12:05.769Z,23.28
2022-08-12T18:14:31.043Z,23.07
2022-08-12T18:17:00.642Z,23.14
2022-08-12T18:20:04.297Z,23.05
2022-08-12T18:22:22.151Z,23.18
2022-08-12T18:25:03.828Z,23.11
2022-08-12T18:27:44.311Z,23.04
2022-08-12T18:30:29.404Z,23.28
2022-08-12T18:33:04.111Z,23.34
2022-08-12T18:35:47.617Z,23.44
2022-08-12T18:38:22.690Z,23.21
2022-08-12T18:41:11.512Z,23.46
2022-08-12T18:43:59.184Z,23.33
2022-08-12T18:46:35.774Z,23.31
2022-08-12T18:49:18.269Z,23.39
2022-08-12T18:51:55.535Z,23.16
2022-08-12T18:54:35.627Z,23.04
2022-08-12T18:57:19.580Z,22.92
2022-08-12T19:00:06.761Z,23.12
2022-08-12T19:02:40.341Z,22.85
2022-08-12T19:05:11.816Z,22.73
2022-08-12T19:07:58.060Z,23.04
2022-08-12T19:10:31.316Z,23.09
2022-08-12T19:13:23.274Z,22.99
2022-08-12T19:15:54.122Z,23.09
2022-08-12T19:18:29.871Z,23.03
2022-08-12T19:21:06.107Z,22.93
2022-08-12T19:23:40.173Z,22.79
2022-08-12T19:26:10.511Z,22.82
2022-08-12T19:28:41.331Z,22.79
2022-08-12T19:31:56.632Z,22.87
2022-08-12T19:35:24.033Z,22.85
2022-08-12T19:37:20.378Z,22.90
2022-08-12T19:40:08.930Z,22.86
2022-08-12T19:42:44.908Z,22.66
2022-08-12T19:45:17.500Z,22.78
2022-08-12T19:47:46.794Z,22.66
2022-08-12T19:50:19.625Z,22.60
2022-08-12T19:52:53.382Z,22.59
2022-08-12T19:55:23.398Z,22.57
2022-08-12T19:58:01.565Z,22.48
2022-08-12T20:00:34.782Z,22.54
2022-08-12T20:03:05.436Z,22.52
2022-08-12T20:06:06.240Z,22.44
2022-08-12T20:08:34.513Z,22.52
2022-08-12T20:12:13.269Z,22.50
2022-08-12T20:14:01.061Z,22.51
2022-08-12T20:16:56.413Z,22.51
2022-08-12T20:19:52.754Z,22.55
2022-08-12T20:22:24.495Z,22.54
2022-08-12T20:25:00.910Z,22.48
2022-08-12T20:28:03.659Z,22.46
2022-08-12T20:30:52.818Z,22.43
2022-08-12T20:33:18.904Z,22.34
2022-08-12T20:36:06.883Z,22.29
2022-08-12T20:38:45.808Z,22.08
2022-08-12T20:41:14.778Z,22.02
2022-08-12T20:43:49.351Z,21.92
2022-08-12T20:46:19.128Z,21.82
2022-08-12T20:48:55.017Z,21.85
2022-08-12T20:51:27.555Z,21.90
2022-08-12T20:53:59.710Z,21.87
2022-08-12T20:56:33.414Z,21.97
2022-08-12T20:59:05.395Z,21.94
2022-08-12T21:01:46.819Z,21.98
2022-08-12T21:04:35.663Z,22.00
2022-08-12T21:07:09.520Z,22.00
2022-08-12T21:09:44.392Z,21.78
2022-08-12T21:12:28.039Z,21.76
2022-08-12T21:15:24.281Z,21.76
2022-08-12T21:18:09.297Z,21.77
2022-08-12T21:20:38.331Z,21.73
2022-08-12T21:23:07.643Z,21.76
2022-08-12T21:25:45.450Z,21.75
2022-08-12T21:28:14.183Z,21.70
2022-08-12T21:30:54.920Z,21.74
2022-08-12T21:33:31.714Z,21.73
2022-08-12T21:36:02.732Z,21.69
2022-08-12T21:38:40.369Z,21.73
2022-08-12T21:41:16.032Z,21.74
2022-08-12T21:43:45.267Z,21.75
2022-08-12T21:46:35.305Z,21.64
2022-08-12T21:49:05.595Z,21.63
2022-08-12T21:51:49.010Z,21.68
2022-08-12T21:54:21.919Z,21.70
2022-08-12T21:56:53.602Z,21.76
2022-08-12T21:59:22.160Z,21.77
2022-08-12T22:01:50.764Z,21.79
2022-08-12T22:04:36.972Z,21.75
2022-08-12T22:07:06.218Z,21.73
2022-08-12T22:09:43.224Z,21.64
2022-08-12T22:12:30.665Z,21.57
2022-08-12T22:14:58.858Z,21.43
2022-08-12T22:17:49.895Z,21.45
2022-08-12T22:20:22.043Z,21.40
2022-08-12T22:22:56.055Z,21.31
2022-08-12T22:25:27.839Z,21.22
2022-08-12T22:28:14.880Z,21.25
2022-08-12T22:31:01.136Z,21.17
2022-08-12T22:33:29.164Z,21.13
2022-08-12T22:36:00.049Z,21.05
2022-08-12T22:38:29.874Z,21.05
2022-08-12T22:41:01.651Z,21.00
2022-08-12T22:44:00.953Z,21.03
2022-08-12T22:46:52.860Z,21.10
2022-08-12T22:49:36.597Z,21.08
2022-08-12T22:52:12.116Z,21.07
2022-08-12T22:54:59.882Z,21.07
2022-08-12T22:57:54.303Z,21.08
2022-08-12T23:00:24.727Z,21.04
2022-08-12T23:03:00.392Z,21.05
2022-08-12T23:05:56.914Z,21.05
2022-08-12T23:08:22.358Z,21.01
2022-08-12T23:10:50.861Z,20.91
2022-08-12T23:13:43.259Z,20.89
2022-08-12T23:16:18.335Z,20.85
2022-08-12T23:19:01.518Z,20.85
2022-08-12T23:22:04.261Z,20.92
2022-08-12T23:24:26.374Z,20.92
2022-08-12T23:27:11.807Z,20.97
2022-08-12T23:29:43.055Z,20.95
2022-08-12T23:32:35.339Z,21.00
2022-08-12T23:35:03.783Z,21.01
2022-08-12T23:37:47.074Z,20.99
2022-08-12T23:40:21.161Z,20.95
2022-08-12T23:42:50.432Z,20.93
2022-08-12T23:45:20.620Z,20.98
2022-08-12T23:48:01.412Z,21.02
2022-08-12T23:50:33.974Z,21.09
2022-08-12T23:53:05.739Z,20.99
2022-08-12T23:55:35.977Z,20.96
2022-08-12T23:58:20.598Z,20.89
